sensor_id;sensor_type;location;lat;lon;timestamp;temperature;humidity
35258;DHT22;21385;50.878;8.050;2022-10-16T00:01:10;14.60;99.90
35258;DHT22;21385;50.878;8.050;2022-10-16T00:03:37;14.60;99.90
35258;DHT22;21385;50.878;8.050;2022-10-16T00:06:03;14.50;99.90
35258;DHT22;21385;50.878;8.050;2022-10-16T00:11:00;14.50;99.90
35258;DHT22;21385;50.878;8.050;2022-10-16T00:13:26;14.50;99.90
35258;DHT22;21385;50.878;8.050;2022-10-16T00:15:55;14.50;99.90
35258;DHT22;21385;50.878;8.050;2022-10-16T00:18:21;14.50;99.90
35258;DHT22;21385;50.878;8.050;2022-10-16T00:20:47;14.40;99.90
35258;DHT22;21385;50.878;8.050;2022-10-16T00:23:12;14.40;99.90
35258;DHT22;21385;50.878;8.050;2022-10-16T00:25:38;14.40;99.90
35258;DHT22;21385;50.878;8.050;2022-10-16T00:28:03;14.40;99.90
35258;DHT22;21385;50.878;8.050;2022-10-16T00:30:29;14.40;99.90
35258;DHT22;21385;50.878;8.050;2022-10-16T00:32:55;14.40;99.90
35258;DHT22;21385;50.878;8.050;2022-10-16T00:35:21;14.30;99.90
35258;DHT22;21385;50.878;8.050;2022-10-16T00:37:47;14.30;99.90
35258;DHT22;21385;50.878;8.050;2022-10-16T00:40:12;14.30;99.90
35258;DHT22;21385;50.878;8.050;2022-10-16T00:42:38;14.30;99.90
35258;DHT22;21385;50.878;8.050;2022-10-16T00:45:04;14.30;99.90
35258;DHT22;21385;50.878;8.050;2022-10-16T00:47:49;14.30;99.90
35258;DHT22;21385;50.878;8.050;2022-10-16T00:50:18;14.30;99.90
35258;DHT22;21385;50.878;8.050;2022-10-16T00:52:48;14.30;99.90
35258;DHT22;21385;50.878;8.050;2022-10-16T00:55:15;14.30;99.90
35258;DHT22;21385;50.878;8.050;2022-10-16T00:57:42;14.30;99.90
35258;DHT22;21385;50.878;8.050;2022-10-16T01:00:12;14.20;99.90
35258;DHT22;21385;50.878;8.050;2022-10-16T01:02:38;14.10;99.90
35258;DHT22;21385;50.878;8.050;2022-10-16T01:05:04;14.10;99.90
35258;DHT22;21385;50.878;8.050;2022-10-16T01:12:47;14.10;99.90
35258;DHT22;21385;50.878;8.050;2022-10-16T01:15:21;14.10;99.90
35258;DHT22;21385;50.878;8.050;2022-10-16T01:18:16;14.10;99.90
35258;DHT22;21385;50.878;8.050;2022-10-16T01:21:08;14.10;99.90
35258;DHT22;21385;50.878;8.050;2022-10-16T01:29:15;14.10;99.90
35258;DHT22;21385;50.878;8.050;2022-10-16T01:31:47;14.10;99.90
35258;DHT22;21385;50.878;8.050;2022-10-16T01:34:25;14.10;99.90
35258;DHT22;21385;50.878;8.050;2022-10-16T01:36:58;14.10;99.90
35258;DHT22;21385;50.878;8.050;2022-10-16T01:39:29;14.10;99.90
35258;DHT22;21385;50.878;8.050;2022-10-16T01:42:05;14.00;99.90
35258;DHT22;21385;50.878;8.050;2022-10-16T01:44:33;14.00;99.90
35258;DHT22;21385;50.878;8.050;2022-10-16T01:47:01;14.00;99.90
35258;DHT22;21385;50.878;8.050;2022-10-16T01:49:31;14.00;99.90
35258;DHT22;21385;50.878;8.050;2022-10-16T01:51:59;14.00;99.90
35258;DHT22;21385;50.878;8.050;2022-10-16T01:54:28;14.00;99.90
35258;DHT22;21385;50.878;8.050;2022-10-16T01:56:56;14.10;99.90
35258;DHT22;21385;50.878;8.050;2022-10-16T01:59:25;14.10;99.90
35258;DHT22;21385;50.878;8.050;2022-10-16T02:01:55;14.10;99.90
35258;DHT22;21385;50.878;8.050;2022-10-16T02:04:54;14.10;99.90
35258;DHT22;21385;50.878;8.050;2022-10-16T02:07:22;14.00;99.90
35258;DHT22;21385;50.878;8.050;2022-10-16T02:09:48;14.00;99.90
35258;DHT22;21385;50.878;8.050;2022-10-16T02:12:19;14.00;99.90
35258;DHT22;21385;50.878;8.050;2022-10-16T02:14:47;13.90;99.90
35258;DHT22;21385;50.878;8.050;2022-10-16T02:17:16;13.90;99.90
35258;DHT22;21385;50.878;8.050;2022-10-16T02:19:43;13.90;99.90
35258;DHT22;21385;50.878;8.050;2022-10-16T02:22:16;13.80;99.90
35258;DHT22;21385;50.878;8.050;2022-10-16T02:24:51;13.80;99.90
35258;DHT22;21385;50.878;8.050;2022-10-16T02:27:41;13.80;99.90
35258;DHT22;21385;50.878;8.050;2022-10-16T02:30:16;13.80;99.90
35258;DHT22;21385;50.878;8.050;2022-10-16T02:32:46;13.70;99.90
35258;DHT22;21385;50.878;8.050;2022-10-16T02:35:13;13.80;99.90
35258;DHT22;21385;50.878;8.050;2022-10-16T02:37:41;13.80;99.90
35258;DHT22;21385;50.878;8.050;2022-10-16T02:40:07;13.70;99.90
35258;DHT22;21385;50.878;8.050;2022-10-16T02:42:35;13.70;99.90
35258;DHT22;21385;50.878;8.050;2022-10-16T02:45:01;13.70;99.90
35258;DHT22;21385;50.878;8.050;2022-10-16T02:47:26;13.60;99.90
35258;DHT22;21385;50.878;8.050;2022-10-16T02:49:52;13.60;99.90
35258;DHT22;21385;50.878;8.050;2022-10-16T02:52:17;13.60;99.90
35258;DHT22;21385;50.878;8.050;2022-10-16T02:54:43;13.60;99.90
35258;DHT22;21385;50.878;8.050;2022-10-16T02:57:09;13.50;99.90
35258;DHT22;21385;50.878;8.050;2022-10-16T02:59:34;13.50;99.90
35258;DHT22;21385;50.878;8.050;2022-10-16T03:02:00;13.50;99.90
35258;DHT22;21385;50.878;8.050;2022-10-16T03:04:25;13.50;99.90
35258;DHT22;21385;50.878;8.050;2022-10-16T03:06:51;13.40;99.90
35258;DHT22;21385;50.878;8.050;2022-10-16T03:09:16;13.40;99.90
35258;DHT22;21385;50.878;8.050;2022-10-16T03:11:42;13.40;99.90
35258;DHT22;21385;50.878;8.050;2022-10-16T03:14:07;13.30;99.90
35258;DHT22;21385;50.878;8.050;2022-10-16T03:16:33;13.30;99.90
35258;DHT22;21385;50.878;8.050;2022-10-16T03:18:58;13.40;99.90
35258;DHT22;21385;50.878;8.050;2022-10-16T03:21:24;13.30;99.90
35258;DHT22;21385;50.878;8.050;2022-10-16T03:23:50;13.30;99.90
35258;DHT22;21385;50.878;8.050;2022-10-16T03:26:15;13.20;99.90
35258;DHT22;21385;50.878;8.050;2022-10-16T03:28:41;13.20;99.90
35258;DHT22;21385;50.878;8.050;2022-10-16T03:31:06;13.20;99.90
35258;DHT22;21385;50.878;8.050;2022-10-16T03:33:32;13.20;99.90
35258;DHT22;21385;50.878;8.050;2022-10-16T03:35:57;13.10;99.90
35258;DHT22;21385;50.878;8.050;2022-10-16T03:38:23;13.10;99.90
35258;DHT22;21385;50.878;8.050;2022-10-16T03:40:49;13.10;99.90
35258;DHT22;21385;50.878;8.050;2022-10-16T03:43:14;13.00;99.90
35258;DHT22;21385;50.878;8.050;2022-10-16T03:45:40;13.00;99.90
35258;DHT22;21385;50.878;8.050;2022-10-16T03:48:06;13.00;99.90
35258;DHT22;21385;50.878;8.050;2022-10-16T03:50:31;13.00;99.90
35258;DHT22;21385;50.878;8.050;2022-10-16T03:52:57;13.00;99.90
35258;DHT22;21385;50.878;8.050;2022-10-16T03:55:22;13.00;99.90
35258;DHT22;21385;50.878;8.050;2022-10-16T03:57:48;13.00;99.90
35258;DHT22;21385;50.878;8.050;2022-10-16T04:00:13;13.00;99.90
35258;DHT22;21385;50.878;8.050;2022-10-16T04:02:39;13.00;99.90
35258;DHT22;21385;50.878;8.050;2022-10-16T04:05:05;13.00;99.90
35258;DHT22;21385;50.878;8.050;2022-10-16T04:07:31;12.90;99.90
35258;DHT22;21385;50.878;8.050;2022-10-16T04:09:56;12.90;99.90
35258;DHT22;21385;50.878;8.050;2022-10-16T04:12:24;12.90;99.90
35258;DHT22;21385;50.878;8.050;2022-10-16T04:14:50;13.00;99.90
35258;DHT22;21385;50.878;8.050;2022-10-16T04:17:15;13.00;99.90
35258;DHT22;21385;50.878;8.050;2022-10-16T04:19:41;13.00;99.90
35258;DHT22;21385;50.878;8.050;2022-10-16T04:22:06;12.90;99.90
35258;DHT22;21385;50.878;8.050;2022-10-16T04:24:32;12.90;99.90
35258;DHT22;21385;50.878;8.050;2022-10-16T04:26:58;13.00;99.90
35258;DHT22;21385;50.878;8.050;2022-10-16T04:29:23;13.00;99.90
35258;DHT22;21385;50.878;8.050;2022-10-16T04:31:49;13.00;99.90
35258;DHT22;21385;50.878;8.050;2022-10-16T04:34:14;13.00;99.90
35258;DHT22;21385;50.878;8.050;2022-10-16T04:36:40;13.10;99.90
35258;DHT22;21385;50.878;8.050;2022-10-16T04:39:05;13.20;99.90
35258;DHT22;21385;50.878;8.050;2022-10-16T04:41:31;13.30;99.90
35258;DHT22;21385;50.878;8.050;2022-10-16T04:43:57;13.30;99.90
35258;DHT22;21385;50.878;8.050;2022-10-16T04:46:22;13.40;99.90
35258;DHT22;21385;50.878;8.050;2022-10-16T04:48:48;13.40;99.90
35258;DHT22;21385;50.878;8.050;2022-10-16T04:51:13;13.40;99.90
35258;DHT22;21385;50.878;8.050;2022-10-16T04:53:39;13.40;99.90
35258;DHT22;21385;50.878;8.050;2022-10-16T04:56:05;13.50;99.90
35258;DHT22;21385;50.878;8.050;2022-10-16T04:58:30;13.50;99.90
35258;DHT22;21385;50.878;8.050;2022-10-16T05:00:56;13.60;99.90
35258;DHT22;21385;50.878;8.050;2022-10-16T05:03:21;13.60;99.90
35258;DHT22;21385;50.878;8.050;2022-10-16T05:05:47;13.60;99.90
35258;DHT22;21385;50.878;8.050;2022-10-16T05:08:14;13.60;99.90
35258;DHT22;21385;50.878;8.050;2022-10-16T05:10:42;13.60;99.90
35258;DHT22;21385;50.878;8.050;2022-10-16T05:13:08;13.70;99.90
35258;DHT22;21385;50.878;8.050;2022-10-16T05:15:34;13.70;99.90
35258;DHT22;21385;50.878;8.050;2022-10-16T05:17:59;13.80;99.90
35258;DHT22;21385;50.878;8.050;2022-10-16T05:20:25;13.70;99.90
35258;DHT22;21385;50.878;8.050;2022-10-16T05:22:51;13.80;99.90
35258;DHT22;21385;50.878;8.050;2022-10-16T05:25:16;13.80;99.90
35258;DHT22;21385;50.878;8.050;2022-10-16T05:27:42;13.70;99.90
35258;DHT22;21385;50.878;8.050;2022-10-16T05:30:08;13.70;99.90
35258;DHT22;21385;50.878;8.050;2022-10-16T05:32:34;13.70;99.90
35258;DHT22;21385;50.878;8.050;2022-10-16T05:34:59;13.70;99.90
35258;DHT22;21385;50.878;8.050;2022-10-16T05:37:27;13.80;99.90
35258;DHT22;21385;50.878;8.050;2022-10-16T05:39:52;13.70;99.90
35258;DHT22;21385;50.878;8.050;2022-10-16T05:42:18;13.80;99.90
35258;DHT22;21385;50.878;8.050;2022-10-16T05:44:44;13.80;99.90
35258;DHT22;21385;50.878;8.050;2022-10-16T05:47:10;13.90;99.90
35258;DHT22;21385;50.878;8.050;2022-10-16T05:49:36;13.90;99.90
35258;DHT22;21385;50.878;8.050;2022-10-16T05:52:01;14.00;99.90
35258;DHT22;21385;50.878;8.050;2022-10-16T05:54:27;13.90;99.90
35258;DHT22;21385;50.878;8.050;2022-10-16T05:56:53;13.90;99.90
35258;DHT22;21385;50.878;8.050;2022-10-16T05:59:18;13.90;99.90
35258;DHT22;21385;50.878;8.050;2022-10-16T06:01:44;13.80;99.90
35258;DHT22;21385;50.878;8.050;2022-10-16T06:04:09;13.90;99.90
35258;DHT22;21385;50.878;8.050;2022-10-16T06:06:35;13.90;99.90
35258;DHT22;21385;50.878;8.050;2022-10-16T06:09:02;13.90;99.90
35258;DHT22;21385;50.878;8.050;2022-10-16T06:11:30;13.90;99.90
35258;DHT22;21385;50.878;8.050;2022-10-16T06:13:58;13.90;99.90
35258;DHT22;21385;50.878;8.050;2022-10-16T06:16:26;13.90;99.90
35258;DHT22;21385;50.878;8.050;2022-10-16T06:18:52;14.00;99.90
35258;DHT22;21385;50.878;8.050;2022-10-16T06:21:20;14.00;99.90
35258;DHT22;21385;50.878;8.050;2022-10-16T06:23:47;14.10;99.90
35258;DHT22;21385;50.878;8.050;2022-10-16T06:26:14;14.10;99.90
35258;DHT22;21385;50.878;8.050;2022-10-16T06:28:40;14.20;99.90
35258;DHT22;21385;50.878;8.050;2022-10-16T06:31:07;14.30;99.90
35258;DHT22;21385;50.878;8.050;2022-10-16T06:33:33;14.20;99.90
35258;DHT22;21385;50.878;8.050;2022-10-16T06:36:07;14.30;99.90
35258;DHT22;21385;50.878;8.050;2022-10-16T06:38:33;14.30;99.90
35258;DHT22;21385;50.878;8.050;2022-10-16T06:40:59;14.30;99.90
35258;DHT22;21385;50.878;8.050;2022-10-16T06:43:25;14.40;99.90
35258;DHT22;21385;50.878;8.050;2022-10-16T06:45:55;14.40;99.90
35258;DHT22;21385;50.878;8.050;2022-10-16T06:48:23;14.50;99.90
35258;DHT22;21385;50.878;8.050;2022-10-16T06:50:59;14.50;99.90
35258;DHT22;21385;50.878;8.050;2022-10-16T06:53:28;14.60;99.90
35258;DHT22;21385;50.878;8.050;2022-10-16T06:55:54;14.60;99.90
35258;DHT22;21385;50.878;8.050;2022-10-16T06:58:20;14.60;99.90
35258;DHT22;21385;50.878;8.050;2022-10-16T07:00:46;14.60;99.90
35258;DHT22;21385;50.878;8.050;2022-10-16T07:03:11;14.70;99.90
35258;DHT22;21385;50.878;8.050;2022-10-16T07:05:38;14.70;99.90
35258;DHT22;21385;50.878;8.050;2022-10-16T07:08:04;14.70;99.90
35258;DHT22;21385;50.878;8.050;2022-10-16T07:10:31;14.70;99.90
35258;DHT22;21385;50.878;8.050;2022-10-16T07:12:56;14.80;99.90
35258;DHT22;21385;50.878;8.050;2022-10-16T07:15:22;14.80;99.90
35258;DHT22;21385;50.878;8.050;2022-10-16T07:17:48;14.80;99.90
35258;DHT22;21385;50.878;8.050;2022-10-16T07:20:13;14.80;99.90
35258;DHT22;21385;50.878;8.050;2022-10-16T07:22:39;14.90;99.90
35258;DHT22;21385;50.878;8.050;2022-10-16T07:25:05;14.90;99.90
35258;DHT22;21385;50.878;8.050;2022-10-16T07:27:31;15.00;99.90
35258;DHT22;21385;50.878;8.050;2022-10-16T07:29:56;15.00;99.90
35258;DHT22;21385;50.878;8.050;2022-10-16T07:32:22;15.10;99.90
35258;DHT22;21385;50.878;8.050;2022-10-16T07:34:47;15.10;99.90
35258;DHT22;21385;50.878;8.050;2022-10-16T07:37:13;15.10;99.90
35258;DHT22;21385;50.878;8.050;2022-10-16T07:39:38;15.10;99.90
35258;DHT22;21385;50.878;8.050;2022-10-16T07:42:04;15.20;99.90
35258;DHT22;21385;50.878;8.050;2022-10-16T07:44:29;15.20;99.90
35258;DHT22;21385;50.878;8.050;2022-10-16T07:46:55;15.30;99.90
35258;DHT22;21385;50.878;8.050;2022-10-16T07:49:20;15.30;99.90
35258;DHT22;21385;50.878;8.050;2022-10-16T07:51:46;15.40;99.90
35258;DHT22;21385;50.878;8.050;2022-10-16T07:54:11;15.50;99.90
35258;DHT22;21385;50.878;8.050;2022-10-16T07:56:37;15.50;99.90
35258;DHT22;21385;50.878;8.050;2022-10-16T07:59:03;15.60;99.90
35258;DHT22;21385;50.878;8.050;2022-10-16T08:01:28;15.60;99.90
35258;DHT22;21385;50.878;8.050;2022-10-16T08:03:54;15.70;99.90
35258;DHT22;21385;50.878;8.050;2022-10-16T08:06:21;15.80;99.90
35258;DHT22;21385;50.878;8.050;2022-10-16T08:08:47;15.70;99.90
35258;DHT22;21385;50.878;8.050;2022-10-16T08:11:13;15.80;99.90
35258;DHT22;21385;50.878;8.050;2022-10-16T08:13:40;15.80;99.90
35258;DHT22;21385;50.878;8.050;2022-10-16T08:16:06;15.90;99.90
35258;DHT22;21385;50.878;8.050;2022-10-16T08:18:34;15.90;99.90
35258;DHT22;21385;50.878;8.050;2022-10-16T08:21:00;16.00;99.90
35258;DHT22;21385;50.878;8.050;2022-10-16T08:23:27;16.00;99.90
35258;DHT22;21385;50.878;8.050;2022-10-16T08:25:53;15.90;99.90
35258;DHT22;21385;50.878;8.050;2022-10-16T08:28:19;16.00;99.90
35258;DHT22;21385;50.878;8.050;2022-10-16T08:30:45;16.00;99.90
35258;DHT22;21385;50.878;8.050;2022-10-16T08:33:11;16.00;99.90
35258;DHT22;21385;50.878;8.050;2022-10-16T08:35:36;16.00;99.90
35258;DHT22;21385;50.878;8.050;2022-10-16T08:38:05;16.10;99.90
35258;DHT22;21385;50.878;8.050;2022-10-16T08:40:32;16.10;99.90
35258;DHT22;21385;50.878;8.050;2022-10-16T08:43:33;16.10;99.90
35258;DHT22;21385;50.878;8.050;2022-10-16T08:48:52;16.20;99.90
35258;DHT22;21385;50.878;8.050;2022-10-16T08:51:30;16.20;99.90
35258;DHT22;21385;50.878;8.050;2022-10-16T08:53:59;16.40;99.90
35258;DHT22;21385;50.878;8.050;2022-10-16T08:56:26;16.40;99.90
35258;DHT22;21385;50.878;8.050;2022-10-16T08:58:53;16.40;99.90
35258;DHT22;21385;50.878;8.050;2022-10-16T09:01:21;16.60;99.90
35258;DHT22;21385;50.878;8.050;2022-10-16T09:06:46;16.60;99.90
35258;DHT22;21385;50.878;8.050;2022-10-16T09:17:32;16.50;99.90
35258;DHT22;21385;50.878;8.050;2022-10-16T09:20:23;16.50;99.90
35258;DHT22;21385;50.878;8.050;2022-10-16T09:23:13;16.70;99.90
35258;DHT22;21385;50.878;8.050;2022-10-16T09:25:43;16.90;99.90
35258;DHT22;21385;50.878;8.050;2022-10-16T09:28:09;16.90;99.90
35258;DHT22;21385;50.878;8.050;2022-10-16T09:30:35;16.90;99.90
35258;DHT22;21385;50.878;8.050;2022-10-16T09:33:02;17.00;99.90
35258;DHT22;21385;50.878;8.050;2022-10-16T09:35:39;17.00;99.90
35258;DHT22;21385;50.878;8.050;2022-10-16T09:38:06;17.10;99.90
35258;DHT22;21385;50.878;8.050;2022-10-16T09:40:38;17.20;99.90
35258;DHT22;21385;50.878;8.050;2022-10-16T09:43:23;17.40;99.90
35258;DHT22;21385;50.878;8.050;2022-10-16T09:46:08;17.60;99.90
35258;DHT22;21385;50.878;8.050;2022-10-16T09:48:37;17.60;99.90
35258;DHT22;21385;50.878;8.050;2022-10-16T09:51:06;17.50;99.90
35258;DHT22;21385;50.878;8.050;2022-10-16T09:53:39;17.40;99.90
35258;DHT22;21385;50.878;8.050;2022-10-16T09:56:05;17.30;99.90
35258;DHT22;21385;50.878;8.050;2022-10-16T09:58:32;17.40;99.90
35258;DHT22;21385;50.878;8.050;2022-10-16T10:00:59;17.40;99.90
35258;DHT22;21385;50.878;8.050;2022-10-16T10:03:38;17.40;99.90
35258;DHT22;21385;50.878;8.050;2022-10-16T10:06:25;17.30;99.90
35258;DHT22;21385;50.878;8.050;2022-10-16T10:09:06;17.30;99.90
35258;DHT22;21385;50.878;8.050;2022-10-16T10:11:54;17.50;99.90
35258;DHT22;21385;50.878;8.050;2022-10-16T10:16:52;17.80;99.90
35258;DHT22;21385;50.878;8.050;2022-10-16T10:19:23;18.00;99.90
35258;DHT22;21385;50.878;8.050;2022-10-16T10:21:50;18.10;99.90
35258;DHT22;21385;50.878;8.050;2022-10-16T10:24:18;18.30;99.90
35258;DHT22;21385;50.878;8.050;2022-10-16T10:26:54;18.50;99.90
35258;DHT22;21385;50.878;8.050;2022-10-16T10:32:27;18.90;99.90
35258;DHT22;21385;50.878;8.050;2022-10-16T10:35:42;19.00;99.90
35258;DHT22;21385;50.878;8.050;2022-10-16T10:54:52;19.70;99.90
35258;DHT22;21385;50.878;8.050;2022-10-16T11:00:27;19.90;99.90
35258;DHT22;21385;50.878;8.050;2022-10-16T11:03:07;19.90;99.90
35258;DHT22;21385;50.878;8.050;2022-10-16T11:05:41;20.30;99.90
35258;DHT22;21385;50.878;8.050;2022-10-16T11:11:14;20.80;99.90
35258;DHT22;21385;50.878;8.050;2022-10-16T11:16:30;21.10;99.90
35258;DHT22;21385;50.878;8.050;2022-10-16T11:19:03;21.20;99.90
35258;DHT22;21385;50.878;8.050;2022-10-16T11:21:36;21.20;99.90
35258;DHT22;21385;50.878;8.050;2022-10-16T11:24:16;20.90;99.90
35258;DHT22;21385;50.878;8.050;2022-10-16T11:26:46;20.70;99.90
35258;DHT22;21385;50.878;8.050;2022-10-16T11:29:28;20.30;99.90
35258;DHT22;21385;50.878;8.050;2022-10-16T11:31:59;20.20;99.90
35258;DHT22;21385;50.878;8.050;2022-10-16T11:34:28;20.30;99.90
35258;DHT22;21385;50.878;8.050;2022-10-16T11:37:08;20.40;99.90
35258;DHT22;21385;50.878;8.050;2022-10-16T11:39:37;20.60;99.90
35258;DHT22;21385;50.878;8.050;2022-10-16T11:42:32;20.60;99.90
35258;DHT22;21385;50.878;8.050;2022-10-16T11:45:19;20.70;99.90
35258;DHT22;21385;50.878;8.050;2022-10-16T11:47:54;20.80;99.90
35258;DHT22;21385;50.878;8.050;2022-10-16T11:55:43;20.70;99.90
35258;DHT22;21385;50.878;8.050;2022-10-16T11:58:15;20.70;99.90
35258;DHT22;21385;50.878;8.050;2022-10-16T12:03:25;20.50;99.90
35258;DHT22;21385;50.878;8.050;2022-10-16T12:06:19;20.50;99.90
35258;DHT22;21385;50.878;8.050;2022-10-16T12:08:49;20.60;99.90
35258;DHT22;21385;50.878;8.050;2022-10-16T12:16:59;20.50;99.90
35258;DHT22;21385;50.878;8.050;2022-10-16T12:19:28;20.50;99.90
35258;DHT22;21385;50.878;8.050;2022-10-16T12:21:57;20.50;99.90
35258;DHT22;21385;50.878;8.050;2022-10-16T12:26:58;20.50;99.90
35258;DHT22;21385;50.878;8.050;2022-10-16T12:31:52;20.50;99.90
35258;DHT22;21385;50.878;8.050;2022-10-16T12:34:41;20.50;99.90
35258;DHT22;21385;50.878;8.050;2022-10-16T12:37:29;20.50;99.90
35258;DHT22;21385;50.878;8.050;2022-10-16T12:39:56;20.50;99.90
35258;DHT22;21385;50.878;8.050;2022-10-16T12:44:55;20.70;99.90
35258;DHT22;21385;50.878;8.050;2022-10-16T12:49:53;20.70;99.90
35258;DHT22;21385;50.878;8.050;2022-10-16T12:54:57;20.60;99.90
35258;DHT22;21385;50.878;8.050;2022-10-16T13:00:24;20.70;99.90
35258;DHT22;21385;50.878;8.050;2022-10-16T13:05:49;20.60;99.90
35258;DHT22;21385;50.878;8.050;2022-10-16T13:17:03;20.60;99.90
35258;DHT22;21385;50.878;8.050;2022-10-16T13:22:14;20.80;99.90
35258;DHT22;21385;50.878;8.050;2022-10-16T13:25:15;20.70;99.90
35258;DHT22;21385;50.878;8.050;2022-10-16T13:28:02;20.60;99.90
35258;DHT22;21385;50.878;8.050;2022-10-16T13:33:18;20.50;99.90
35258;DHT22;21385;50.878;8.050;2022-10-16T13:35:53;20.50;99.90
35258;DHT22;21385;50.878;8.050;2022-10-16T13:38:22;20.60;99.90
35258;DHT22;21385;50.878;8.050;2022-10-16T13:41:15;20.70;99.90
35258;DHT22;21385;50.878;8.050;2022-10-16T13:43:48;20.80;99.90
35258;DHT22;21385;50.878;8.050;2022-10-16T13:46:18;20.90;99.90
35258;DHT22;21385;50.878;8.050;2022-10-16T13:48:45;21.10;99.90
35258;DHT22;21385;50.878;8.050;2022-10-16T13:51:21;21.20;99.90
35258;DHT22;21385;50.878;8.050;2022-10-16T13:53:47;21.20;99.90
35258;DHT22;21385;50.878;8.050;2022-10-16T13:56:16;21.30;99.90
35258;DHT22;21385;50.878;8.050;2022-10-16T13:58:43;21.30;99.90
35258;DHT22;21385;50.878;8.050;2022-10-16T14:01:18;21.50;99.90
35258;DHT22;21385;50.878;8.050;2022-10-16T14:03:48;21.60;99.90
35258;DHT22;21385;50.878;8.050;2022-10-16T14:06:17;21.60;99.90
35258;DHT22;21385;50.878;8.050;2022-10-16T14:08:53;21.60;99.90
35258;DHT22;21385;50.878;8.050;2022-10-16T14:11:22;21.50;99.90
35258;DHT22;21385;50.878;8.050;2022-10-16T14:13:49;21.50;99.90
35258;DHT22;21385;50.878;8.050;2022-10-16T14:16:25;21.40;99.90
35258;DHT22;21385;50.878;8.050;2022-10-16T14:21:42;21.30;99.90
35258;DHT22;21385;50.878;8.050;2022-10-16T14:24:33;21.30;99.90
35258;DHT22;21385;50.878;8.050;2022-10-16T14:26:57;21.40;99.90
35258;DHT22;21385;50.878;8.050;2022-10-16T14:29:25;21.40;99.90
35258;DHT22;21385;50.878;8.050;2022-10-16T14:32:04;21.70;99.90
35258;DHT22;21385;50.878;8.050;2022-10-16T14:34:36;22.20;99.90
35258;DHT22;21385;50.878;8.050;2022-10-16T14:37:21;22.70;99.90
35258;DHT22;21385;50.878;8.050;2022-10-16T14:39:52;22.80;99.50
35258;DHT22;21385;50.878;8.050;2022-10-16T14:42:20;22.60;99.60
35258;DHT22;21385;50.878;8.050;2022-10-16T14:44:48;22.50;99.50
35258;DHT22;21385;50.878;8.050;2022-10-16T14:47:20;22.40;99.70
35258;DHT22;21385;50.878;8.050;2022-10-16T14:49:50;22.10;99.90
35258;DHT22;21385;50.878;8.050;2022-10-16T14:52:16;21.90;99.90
35258;DHT22;21385;50.878;8.050;2022-10-16T14:54:41;21.80;99.90
35258;DHT22;21385;50.878;8.050;2022-10-16T14:57:34;21.60;99.90
35258;DHT22;21385;50.878;8.050;2022-10-16T15:00:01;21.50;99.90
35258;DHT22;21385;50.878;8.050;2022-10-16T15:02:36;21.40;99.90
35258;DHT22;21385;50.878;8.050;2022-10-16T15:07:36;21.20;99.90
35258;DHT22;21385;50.878;8.050;2022-10-16T15:10:02;21.20;99.90
35258;DHT22;21385;50.878;8.050;2022-10-16T15:12:28;21.10;99.90
35258;DHT22;21385;50.878;8.050;2022-10-16T15:14:53;21.10;99.90
35258;DHT22;21385;50.878;8.050;2022-10-16T15:17:19;21.10;99.90
35258;DHT22;21385;50.878;8.050;2022-10-16T15:19:44;21.00;99.90
35258;DHT22;21385;50.878;8.050;2022-10-16T15:22:11;20.90;99.90
35258;DHT22;21385;50.878;8.050;2022-10-16T15:24:37;20.80;99.90
35258;DHT22;21385;50.878;8.050;2022-10-16T15:27:03;20.80;99.90
35258;DHT22;21385;50.878;8.050;2022-10-16T15:29:28;20.70;99.90
35258;DHT22;21385;50.878;8.050;2022-10-16T15:31:54;20.70;99.90
35258;DHT22;21385;50.878;8.050;2022-10-16T15:34:19;20.60;99.90
35258;DHT22;21385;50.878;8.050;2022-10-16T15:36:45;20.40;99.90
35258;DHT22;21385;50.878;8.050;2022-10-16T15:39:18;20.40;99.90
35258;DHT22;21385;50.878;8.050;2022-10-16T15:41:45;20.30;99.90
35258;DHT22;21385;50.878;8.050;2022-10-16T15:44:16;20.20;99.90
35258;DHT22;21385;50.878;8.050;2022-10-16T15:46:42;20.10;99.90
35258;DHT22;21385;50.878;8.050;2022-10-16T15:49:08;20.00;99.90
35258;DHT22;21385;50.878;8.050;2022-10-16T15:51:38;20.00;99.90
35258;DHT22;21385;50.878;8.050;2022-10-16T15:54:03;20.00;99.90
35258;DHT22;21385;50.878;8.050;2022-10-16T15:56:29;20.00;99.90
35258;DHT22;21385;50.878;8.050;2022-10-16T15:58:55;19.90;99.90
35258;DHT22;21385;50.878;8.050;2022-10-16T16:01:22;19.90;99.90
35258;DHT22;21385;50.878;8.050;2022-10-16T16:03:48;19.90;99.90
35258;DHT22;21385;50.878;8.050;2022-10-16T16:06:17;19.90;99.90
35258;DHT22;21385;50.878;8.050;2022-10-16T16:08:43;19.90;99.90
35258;DHT22;21385;50.878;8.050;2022-10-16T16:11:11;19.80;99.90
35258;DHT22;21385;50.878;8.050;2022-10-16T16:13:37;19.80;99.90
35258;DHT22;21385;50.878;8.050;2022-10-16T16:18:37;19.70;99.90
35258;DHT22;21385;50.878;8.050;2022-10-16T16:21:03;19.60;99.90
35258;DHT22;21385;50.878;8.050;2022-10-16T16:23:29;19.50;99.90
35258;DHT22;21385;50.878;8.050;2022-10-16T16:26:28;19.40;99.90
35258;DHT22;21385;50.878;8.050;2022-10-16T16:28:58;19.40;99.90
35258;DHT22;21385;50.878;8.050;2022-10-16T16:31:25;19.30;99.90
35258;DHT22;21385;50.878;8.050;2022-10-16T16:33:51;19.20;99.90
35258;DHT22;21385;50.878;8.050;2022-10-16T16:36:17;19.20;99.90
35258;DHT22;21385;50.878;8.050;2022-10-16T16:38:44;19.20;99.90
35258;DHT22;21385;50.878;8.050;2022-10-16T16:41:15;19.10;99.90
35258;DHT22;21385;50.878;8.050;2022-10-16T16:43:41;19.20;99.90
35258;DHT22;21385;50.878;8.050;2022-10-16T16:46:07;19.20;99.90
35258;DHT22;21385;50.878;8.050;2022-10-16T16:48:33;19.10;99.90
35258;DHT22;21385;50.878;8.050;2022-10-16T16:51:06;19.00;99.90
35258;DHT22;21385;50.878;8.050;2022-10-16T16:53:35;19.00;99.90
35258;DHT22;21385;50.878;8.050;2022-10-16T16:56:05;18.90;99.90
35258;DHT22;21385;50.878;8.050;2022-10-16T16:58:31;18.90;99.90
35258;DHT22;21385;50.878;8.050;2022-10-16T17:00:57;18.80;99.90
35258;DHT22;21385;50.878;8.050;2022-10-16T17:03:27;18.80;99.90
35258;DHT22;21385;50.878;8.050;2022-10-16T17:06:06;18.80;99.90
35258;DHT22;21385;50.878;8.050;2022-10-16T17:08:33;18.80;99.90
35258;DHT22;21385;50.878;8.050;2022-10-16T17:11:01;18.70;99.90
35258;DHT22;21385;50.878;8.050;2022-10-16T17:13:30;18.60;99.90
35258;DHT22;21385;50.878;8.050;2022-10-16T17:15:56;18.60;99.90
35258;DHT22;21385;50.878;8.050;2022-10-16T17:18:23;18.50;99.90
35258;DHT22;21385;50.878;8.050;2022-10-16T17:20:49;18.60;99.90
35258;DHT22;21385;50.878;8.050;2022-10-16T17:23:17;18.50;99.90
35258;DHT22;21385;50.878;8.050;2022-10-16T17:25:43;18.50;99.90
35258;DHT22;21385;50.878;8.050;2022-10-16T17:28:10;18.50;99.90
35258;DHT22;21385;50.878;8.050;2022-10-16T17:30:37;18.50;99.90
35258;DHT22;21385;50.878;8.050;2022-10-16T17:33:04;18.40;99.90
35258;DHT22;21385;50.878;8.050;2022-10-16T17:35:37;18.50;99.90